Tuesday, January 22, 2019, 4:44 PM EST
Back to Local

KIAG, Niagara Falls International Airport

Location: Niagara Falls, NY, United States Lat: 43.117
Local Time: 4:44 PM EST (21:44 GMT) Lon: -78.933
Time Zone: US/Eastern Elev: 583 ft

Show me the last for .
Show Decoded

2019-01-22 15:53 METAR KIAG 222053Z 10009KT 10SM OVC090 M07/M13 A3036 RMK AO2 PRESFR SLP304
                 T10671128 56039 =
2019-01-22 14:53 METAR KIAG 221953Z 07007KT 10SM OVC090 M06/M13 A3040 RMK AO2 SLP317 T10611128 =
2019-01-22 13:53 METAR KIAG 221853Z 08005KT 10SM OVC085 M07/M14 A3043 RMK AO2 SLP330 T10671139 =
2019-01-22 12:53 METAR KIAG 221753Z 13007KT 10SM OVC085 M08/M15 A3047 RMK AO2 UPE14B46E53 SLP345
                 P0000 60001 T10781150 11078 21194 58035 =
2019-01-22 11:53 METAR KIAG 221653Z COR 14006KT 10SM FEW100 M09/M14 A3051 RMK AO2 UPB10 SLP361
                 P0000 T10891139 =
2019-01-22 10:53 METAR KIAG 221553Z 14006KT 10SM CLR M11/M14 A3056 RMK AO2 UPB27E40 SLP377 P0001
                 T11061144 =
2019-01-22 09:53 METAR KIAG 221453Z 13003KT 10SM CLR M13/M16 A3058 RMK AO2 SLP383 T11331156 56007
                 =
2019-01-22 08:53 METAR KIAG 221353Z 10003KT 6SM BR CLR M17/M19 A3058 RMK AO2 SLP386 T11671189 =
2019-01-22 07:53 METAR KIAG 221253Z 08005KT 7SM CLR M18/M21 A3059 RMK AO2 SLP392 T11831206 =
2019-01-22 06:53 METAR KIAG 221153Z 09003KT 7SM CLR M18/M20 A3060 RMK AO2 SLP394 60000 I6001
                 T11831200 11133 21183 56001 =
2019-01-22 06:12 METAR KIAG 221112Z AUTO 00000KT 7SM FEW017 M18/M21 A3061 RMK AO2 T11781206 =
2019-01-22 05:53 METAR KIAG 221053Z AUTO 16003KT 8SM BKN017 M16/M18 A3060 RMK AO2 SLP393 I1001
                 T11611183 =
2019-01-22 04:53 METAR KIAG 220953Z AUTO 18003KT 8SM FEW017 M16/M18 A3058 RMK AO2 SLP387
                 T11611183 =
2019-01-22 03:53 METAR KIAG 220853Z AUTO 00000KT 8SM OVC019 M14/M16 A3060 RMK AO2 SNB0757E14
                 SLP391 P0000 60000 T11391161 50012 =
2019-01-22 02:53 METAR KIAG 220753Z AUTO 27005KT 7SM OVC019 M14/M16 A3061 RMK AO2 SNB13E49 SLP395
                 P0000 T11391161 =
2019-01-22 01:53 METAR KIAG 220653Z AUTO 25007KT 7SM OVC018 M14/M16 A3059 RMK AO2 SLP387
                 T11391161 =
2019-01-22 00:53 METAR KIAG 220553Z AUTO 21006KT 9SM OVC019 M15/M17 A3056 RMK AO2 SLP379 I6000
                 T11501172 11144 21189 53009 =
2019-01-21 23:53 METAR KIAG 220453Z AUTO 20004KT 10SM BKN020 M17/M19 A3054 RMK AO2 SLP373 I1000
                 T11671194 411331200 =
2019-01-21 23:09 METAR KIAG 220409Z AUTO 00000KT 10SM BKN020 M18/M19 A3055 RMK AO2 T11781189 =
2019-01-21 22:53 METAR KIAG 220353Z 23005KT 10SM FEW020 M17/M19 A3055 RMK AO2 SLP375 T11671194 =
2019-01-21 21:53 METAR KIAG 220253Z 26004KT 10SM FEW018 SCT024 M16/M19 A3054 RMK AO2 SLP372
                 T11611189 51013 =
2019-01-21 20:53 METAR KIAG 220153Z 25003KT 10SM CLR M15/M19 A3053 RMK AO2 SLP369 T11501194 =
2019-01-21 19:53 METAR KIAG 220053Z 26006KT 10SM CLR M17/M22 A3052 RMK AO2 SLP366 T11671217 =
2019-01-21 18:53 METAR KIAG 212353Z 26007KT 10SM CLR M16/M22 A3050 RMK AO2 SLP360 60000 T11611222
                 11133 21161 53011 =
2019-01-21 17:53 METAR KIAG 212253Z 27010KT 10SM CLR M15/M22 A3047 RMK AO2 SLP350 T11501217 =
2019-01-21 17:02 METAR KIAG 212202Z 26010KT 10SM SCT029 M14/M20 A3047 RMK AO2 T11391200 =
2019-01-21 16:53 METAR KIAG 212153Z 25011KT 10SM BKN029 M14/M20 A3047 RMK AO2 SLP348 T11391200 =

Support USWX by starting your Amazon purchase here.